Time;durP1;ratioP1;P1;durP2;ratioP2;P2;SDS_P1;SDS_P2;PMS_P1;PMS_P2;Temp;Humidity;BMP_temperature;BMP_pressure;BME280_temperature;BME280_humidity;BME280_pressure;Samples;Min_cycle;Max_cycle;Signal;HPM_P1;HPM_P2
2022/01/15 00:00:38;;;;;;;47.22;24.95;;;6.00;99.90;;;;;;6137708;23;20034;-88
2022/01/15 00:03:22;;;;;;;;;;;;;;;;;;;;;
2022/01/15 00:06:00;;;;;;;49.38;23.98;;;6.00;99.90;;;;;;6129727;23;20088;-88
2022/01/15 00:08:37;;;;;;;45.72;23.42;;;6.00;99.90;;;;;;6104944;23;20017;-88
2022/01/15 00:11:08;;;;;;;51.97;25.13;;;5.90;99.90;;;;;;6127931;23;19998;-88
2022/01/15 00:13:54;;;;;;;48.63;23.13;;;6.00;99.90;;;;;;6127861;23;20002;-87
2022/01/15 00:16:55;;;;;;;45.90;23.23;;;6.00;99.90;;;;;;6127506;23;20511;-87
2022/01/15 00:19:35;;;;;;;;;;;5.90;99.90;;;;;;6128203;23;20435;-89
2022/01/15 00:22:02;;;;;;;43.38;20.85;;;5.90;99.90;;;;;;6127260;23;19907;-88
2022/01/15 00:24:45;;;;;;;42.45;20.38;;;5.90;99.90;;;;;;6127060;23;20002;-88
2022/01/15 00:27:22;;;;;;;44.00;20.83;;;5.90;99.90;;;;;;6127596;23;20017;-88
2022/01/15 00:29:51;;;;;;;39.30;20.23;;;5.90;99.90;;;;;;6127476;23;20002;-88
2022/01/15 00:32:43;;;;;;;46.28;21.75;;;5.90;99.90;;;;;;6127488;23;20077;-87
2022/01/15 00:35:14;;;;;;;43.85;22.05;;;5.90;99.90;;;;;;6127003;23;20010;-88
2022/01/15 00:38:04;;;;;;;;;;;;;;;;;;;;;
2022/01/15 00:43:24;;;;;;;47.17;22.80;;;5.90;99.90;;;;;;6128443;23;20002;-88
2022/01/15 00:46:02;;;;;;;;;;;;;;;;;;;;;
2022/01/15 00:48:33;;;;;;;44.05;21.50;;;5.90;99.90;;;;;;6128827;23;20090;-88
2022/01/15 00:51:03;;;;;;;39.67;19.67;;;5.90;99.90;;;;;;6127672;23;20117;-88
2022/01/15 00:53:38;;;;;;;44.55;21.30;;;5.90;99.90;;;;;;6127248;23;20692;-88
2022/01/15 00:56:31;;;;;;;47.33;22.60;;;5.80;99.90;;;;;;6128310;23;20014;-88
2022/01/15 00:58:57;;;;;;;46.95;22.80;;;5.80;99.90;;;;;;6107694;23;20006;-88
2022/01/15 01:01:39;;;;;;;;;;;;;;;;;;;;;
2022/01/15 01:04:21;;;;;;;41.85;21.10;;;5.80;99.90;;;;;;6128522;23;20093;-88
2022/01/15 01:06:54;;;;;;;45.20;21.52;;;5.80;99.90;;;;;;6126614;23;20021;-88
2022/01/15 01:09:44;;;;;;;41.08;19.30;;;5.80;99.90;;;;;;6127567;23;20006;-88
2022/01/15 01:21:51;;;;;;;37.92;18.00;;;5.80;99.90;;;;;;6149137;23;20348;-89
2022/01/15 01:24:03;;;;;;;37.13;17.58;;;5.80;99.90;;;;;;6154471;23;20010;-88
2022/01/15 01:26:41;;;;;;;40.55;18.58;;;5.80;99.90;;;;;;6153397;23;20014;-88
2022/01/15 01:29:49;;;;;;;;;;;;;;;;;;;;;
2022/01/15 01:35:04;;;;;;;39.60;18.33;;;5.70;99.90;;;;;;6138073;23;20017;-88
2022/01/15 01:37:45;;;;;;;38.05;18.42;;;5.70;99.90;;;;;;6126834;23;20093;-87
2022/01/15 01:46:14;;;;;;;37.20;16.92;;;5.70;99.90;;;;;;6104672;23;20452;-87
2022/01/15 01:48:49;;;;;;;;;;;;;;;;;;;;;
2022/01/15 01:51:34;;;;;;;30.02;14.40;;;5.70;99.90;;;;;;6152945;23;20136;-88
2022/01/15 01:54:16;;;;;;;30.98;15.85;;;5.70;99.90;;;;;;6131062;23;20029;-88
2022/01/15 01:56:49;;;;;;;33.70;16.27;;;5.70;99.90;;;;;;6130917;23;20010;-88
2022/01/15 01:59:27;;;;;;;34.65;15.98;;;5.60;99.90;;;;;;6107684;23;20154;-87
2022/01/15 02:02:03;;;;;;;;;;;;;;;;;;;;;
2022/01/15 02:04:31;;;;;;;32.50;15.93;;;5.60;99.90;;;;;;6157118;23;20088;-88
2022/01/15 02:07:05;;;;;;;29.42;14.40;;;5.60;99.90;;;;;;6131150;23;20480;-89
2022/01/15 02:09:44;;;;;;;26.77;13.45;;;5.60;99.90;;;;;;6131410;23;20002;-87
2022/01/15 02:15:14;;;;;;;33.72;15.57;;;5.60;99.90;;;;;;6115306;23;20010;-88
2022/01/15 02:17:53;;;;;;;;;;;;;;;;;;;;;
2022/01/15 02:26:00;;;;;;;35.72;16.33;;;5.50;99.90;;;;;;6156814;23;20025;-87
2022/01/15 02:29:01;;;;;;;34.05;15.73;;;5.50;99.90;;;;;;6130939;23;20021;-88
2022/01/15 02:31:36;;;;;;;33.97;16.67;;;5.60;99.90;;;;;;6131246;23;20012;-88
2022/01/15 02:34:10;;;;;;;32.08;16.67;;;5.50;99.90;;;;;;6131124;23;20499;-88
2022/01/15 02:36:42;;;;;;;32.80;15.23;;;5.50;99.90;;;;;;6131326;23;20332;-88
2022/01/15 02:39:23;;;;;;;31.50;15.85;;;5.50;99.90;;;;;;6131557;23;20025;-88
2022/01/15 02:41:54;;;;;;;27.27;13.43;;;5.50;99.90;;;;;;6108180;23;20016;-88
2022/01/15 02:44:22;;;;;;;30.42;15.73;;;5.50;99.90;;;;;;6132548;23;20096;-88
2022/01/15 02:49:24;;;;;;;30.73;15.32;;;5.50;99.90;;;;;;6192753;23;19994;-88
2022/01/15 02:51:59;;;;;;;29.13;14.52;;;5.50;99.90;;;;;;6156551;23;19990;-88
2022/01/15 02:54:38;;;;;;;;;;;;;;;;;;;;;
2022/01/15 02:57:07;;;;;;;31.83;16.40;;;5.50;99.90;;;;;;6183654;23;19994;-87
2022/01/15 02:59:45;;;;;;;33.67;15.40;;;5.40;99.90;;;;;;6158014;23;20001;-87
2022/01/15 03:02:14;;;;;;;33.65;15.30;;;5.40;99.90;;;;;;6118812;23;20013;-88
2022/01/15 03:04:46;;;;;;;28.35;14.35;;;5.40;99.90;;;;;;6131114;23;20056;-88
2022/01/15 03:07:36;;;;;;;32.22;15.40;;;5.40;99.90;;;;;;6131041;23;20012;-87
2022/01/15 03:10:09;;;;;;;27.98;14.52;;;5.40;99.90;;;;;;6135520;23;20001;-88
2022/01/15 03:12:53;;;;;;;31.92;14.90;;;5.40;99.90;;;;;;6130798;23;20002;-88
2022/01/15 03:15:38;;;;;;;29.08;15.05;;;5.50;99.90;;;;;;6131098;23;20013;-88
2022/01/15 03:18:27;;;;;;;32.00;14.00;;;5.40;99.90;;;;;;6133019;23;20076;-88
2022/01/15 03:20:58;;;;;;;31.65;14.10;;;5.40;99.90;;;;;;6109642;23;20117;-87
2022/01/15 03:23:27;;;;;;;32.55;14.90;;;5.40;99.90;;;;;;6131392;23;20014;-88
2022/01/15 03:26:14;;;;;;;;;;;;;;;;;;;;;
2022/01/15 03:29:06;;;;;;;;;;;;;;;;;;;;;
2022/01/15 03:31:56;;;;;;;27.15;12.98;;;5.40;99.90;;;;;;6135243;23;20081;-88
2022/01/15 03:34:30;;;;;;;24.47;12.40;;;5.40;99.90;;;;;;6130870;23;20001;-88
2022/01/15 03:37:04;;;;;;;29.58;12.82;;;5.40;99.90;;;;;;6156741;23;20579;-88
2022/01/15 03:39:38;;;;;;;22.75;11.80;;;5.40;99.90;;;;;;6129848;23;20002;-89
2022/01/15 03:42:17;;;;;;;21.40;11.18;;;5.40;99.90;;;;;;6131038;23;20093;-89
2022/01/15 03:44:50;;;;;;;16.50;10.18;;;5.40;99.90;;;;;;6156921;23;20009;-88
2022/01/15 03:47:22;;;;;;;18.52;10.98;;;5.40;99.90;;;;;;6130760;23;20005;-88
2022/01/15 03:49:51;;;;;;;19.00;10.13;;;5.50;99.90;;;;;;6107821;23;20024;-88
2022/01/15 03:52:34;;;;;;;;;;;;;;;;;;;;;
2022/01/15 03:55:24;;;;;;;14.90;9.23;;;5.50;99.90;;;;;;6156604;23;20084;-89
2022/01/15 03:58:02;;;;;;;;;;;;;;;;;;;;;
2022/01/15 04:00:37;;;;;;;22.90;11.65;;;5.40;99.90;;;;;;6157311;23;20076;-88
2022/01/15 04:03:16;;;;;;;23.23;11.15;;;5.40;99.90;;;;;;6130883;23;20030;-89
2022/01/15 04:05:50;;;;;;;21.45;12.10;;;5.40;99.90;;;;;;6130880;23;20092;-88
2022/01/15 04:08:18;;;;;;;23.02;12.32;;;5.40;99.90;;;;;;6155842;23;20002;-89
2022/01/15 04:10:44;;;;;;;20.33;12.55;;;5.40;99.90;;;;;;6130838;23;20013;-88
2022/01/15 04:16:05;;;;;;;23.52;13.20;;;5.40;99.90;;;;;;6145767;23;19998;-89
2022/01/15 04:18:47;;;;;;;;;;;;;;;;;;;;;
2022/01/15 04:21:28;;;;;;;25.75;14.52;;;5.40;99.90;;;;;;6158609;23;20002;-88
2022/01/15 04:24:06;;;;;;;;;;;;;;;;;;;;;
2022/01/15 04:27:11;;;;;;;;;;;;;;;;;;;;;
2022/01/15 04:29:40;;;;;;;25.33;13.88;;;5.40;99.90;;;;;;6143398;23;20096;-89
2022/01/15 04:32:36;;;;;;;;;;;;;;;;;;;;;
2022/01/15 04:35:12;;;;;;;26.88;14.52;;;5.40;99.90;;;;;;6158114;23;20085;-88
2022/01/15 04:38:10;;;;;;;24.40;13.85;;;5.40;99.90;;;;;;6132791;23;20025;-88
2022/01/15 04:40:44;;;;;;;24.88;13.98;;;5.40;99.90;;;;;;6113096;23;20009;-89
2022/01/15 04:43:36;;;;;;;;;;;;;;;;;;;;;
2022/01/15 04:46:10;;;;;;;29.73;14.95;;;5.40;99.90;;;;;;6158385;23;20373;-88
2022/01/15 04:48:44;;;;;;;29.13;15.85;;;5.40;99.90;;;;;;6132594;23;20001;-88
2022/01/15 04:51:19;;;;;;;29.13;15.68;;;5.40;99.90;;;;;;6126864;23;20010;-89
2022/01/15 04:54:08;;;;;;;30.20;15.52;;;5.40;99.90;;;;;;6103652;23;20006;-88
2022/01/15 04:59:23;;;;;;;27.63;14.00;;;5.30;99.90;;;;;;6128531;23;20013;-88
2022/01/15 05:02:00;;;;;;;27.33;15.00;;;5.40;99.90;;;;;;6126764;23;20009;-89
2022/01/15 05:04:43;;;;;;;;;;;;;;;;;;;;;
2022/01/15 05:07:20;;;;;;;25.92;14.45;;;5.40;99.90;;;;;;6128341;23;20090;-88
2022/01/15 05:09:58;;;;;;;28.00;16.40;;;5.40;99.90;;;;;;6103856;23;20331;-88
2022/01/15 05:12:42;;;;;;;;;;;;;;;;;;;;;
2022/01/15 05:15:26;;;;;;;27.08;15.02;;;5.30;99.90;;;;;;6127866;23;20078;-88
2022/01/15 05:18:07;;;;;;;;;;;;;;;;;;;;;
2022/01/15 05:20:43;;;;;;;29.13;17.80;;;5.40;99.90;;;;;;6128596;23;20085;-88
2022/01/15 05:23:12;;;;;;;31.92;17.60;;;5.30;99.90;;;;;;6104652;23;20451;-88
2022/01/15 05:26:00;;;;;;;29.20;17.15;;;5.30;99.90;;;;;;6126501;23;20010;-88
2022/01/15 05:28:38;;;;;;;28.58;17.20;;;5.30;99.90;;;;;;6126941;23;20017;-88
2022/01/15 05:31:37;;;;;;;;;;;;;;;;;;;;;
2022/01/15 05:34:21;;;;;;;29.58;17.15;;;5.30;99.90;;;;;;6128253;23;20515;-89
2022/01/15 05:36:47;;;;;;;29.48;18.77;;;5.30;99.90;;;;;;6127310;23;20409;-88
2022/01/15 05:39:31;;;;;;;;;;;;;;;;;;;;;
2022/01/15 05:42:02;;;;;;;29.27;17.80;;;5.40;99.90;;;;;;6106145;23;20073;-88
2022/01/15 05:44:44;;;;;;;33.17;19.77;;;5.30;99.90;;;;;;6145439;23;20009;-88
2022/01/15 05:47:10;;;;;;;34.40;19.15;;;5.40;99.90;;;;;;6154024;23;19998;-89
2022/01/15 05:49:46;;;;;;;35.90;20.90;;;5.30;99.90;;;;;;6159862;23;20013;-88
2022/01/15 05:52:41;;;;;;;27.90;16.50;;;5.30;99.90;;;;;;6142778;23;20005;-88
2022/01/15 05:55:30;;;;;;;27.13;16.90;;;5.30;99.90;;;;;;6131357;23;20006;-88
2022/01/15 05:58:11;;;;;;;31.13;16.85;;;5.30;99.90;;;;;;6102844;23;20016;-88
2022/01/15 06:00:42;;;;;;;29.88;17.77;;;5.30;99.90;;;;;;6126852;23;20077;-88
2022/01/15 06:03:15;;;;;;;29.50;17.85;;;5.40;99.90;;;;;;6102254;23;20364;-89
2022/01/15 06:06:10;;;;;;;30.17;17.35;;;5.30;99.90;;;;;;6101993;23;20010;-89
2022/01/15 06:08:50;;;;;;;;;;;;;;;;;;;;;
2022/01/15 06:14:10;;;;;;;36.15;19.92;;;5.30;99.90;;;;;;6127780;23;20317;-88
2022/01/15 06:16:36;;;;;;;33.15;19.90;;;5.30;99.90;;;;;;6102072;23;20013;-88
2022/01/15 06:19:04;;;;;;;40.45;20.67;;;5.30;99.90;;;;;;6101380;23;20033;-88
2022/01/15 06:21:37;;;;;;;38.05;21.98;;;5.30;99.90;;;;;;6077673;23;20010;-88
2022/01/15 06:24:06;;;;;;;33.78;20.77;;;5.30;99.90;;;;;;6078930;23;20013;-89
2022/01/15 06:26:46;;;;;;;;;;;;;;;;;;;;;
2022/01/15 06:29:30;;;;;;;35.53;19.60;;;5.30;99.90;;;;;;6127367;23;20085;-88
2022/01/15 06:32:02;;;;;;;44.65;23.25;;;5.30;99.90;;;;;;6126241;23;20006;-88
2022/01/15 06:34:28;;;;;;;48.60;26.40;;;5.30;99.90;;;;;;6077854;23;20006;-88
2022/01/15 06:37:15;;;;;;;;;;;;;;;;;;;;;
2022/01/15 06:39:45;;;;;;;47.70;24.60;;;5.30;99.90;;;;;;6127515;23;20077;-87
2022/01/15 06:42:32;;;;;;;40.25;22.58;;;5.30;99.90;;;;;;6101405;23;20006;-88
2022/01/15 06:44:58;;;;;;;47.28;25.23;;;5.20;99.90;;;;;;6125828;23;20005;-88
2022/01/15 06:47:40;;;;;;;45.85;25.15;;;5.20;99.90;;;;;;6103816;23;20105;-88
2022/01/15 06:50:38;;;;;;;45.25;24.52;;;5.20;99.90;;;;;;6102248;23;20432;-88
2022/01/15 06:53:33;;;;;;;49.83;26.35;;;5.20;99.90;;;;;;6154759;23;20440;-88
2022/01/15 06:56:18;;;;;;;41.22;21.95;;;5.20;99.90;;;;;;6130838;23;20064;-88
2022/01/15 06:58:47;;;;;;;48.58;25.40;;;5.20;99.90;;;;;;6110381;23;20007;-88
2022/01/15 07:01:49;;;;;;;45.03;24.30;;;5.20;99.90;;;;;;6107519;23;20370;-88
2022/01/15 07:04:20;;;;;;;53.70;26.58;;;5.20;99.90;;;;;;6157508;23;20055;-88
2022/01/15 07:06:58;;;;;;;49.28;26.80;;;5.20;99.90;;;;;;6131233;23;20017;-88
2022/01/15 07:09:43;;;;;;;45.42;24.08;;;5.20;99.90;;;;;;6131321;23;20068;-88
2022/01/15 07:12:31;;;;;;;50.03;24.92;;;5.20;99.90;;;;;;6148426;23;19997;-88
2022/01/15 07:15:18;;;;;;;;;;;;;;;;;;;;;
2022/01/15 07:17:50;;;;;;;49.58;25.50;;;5.30;99.90;;;;;;6155095;23;20009;-89
2022/01/15 07:20:24;;;;;;;50.53;27.35;;;5.30;99.90;;;;;;6143810;23;20006;-88
2022/01/15 07:23:15;;;;;;;49.65;25.52;;;5.20;99.90;;;;;;6132177;23;20001;-89
2022/01/15 07:26:17;;;;;;;;;;;;;;;;;;;;;
2022/01/15 07:28:48;;;;;;;;;;;5.20;99.90;;;;;;6134950;23;20085;-88
2022/01/15 07:31:16;;;;;;;79.53;28.85;;;5.20;99.90;;;;;;6157255;23;19901;-89
2022/01/15 07:33:47;;;;;;;49.58;26.05;;;5.10;99.90;;;;;;6131231;23;20093;-89
2022/01/15 07:36:39;;;;;;;51.90;27.38;;;5.10;99.90;;;;;;6106664;23;20012;-87
2022/01/15 07:39:11;;;;;;;53.47;27.95;;;5.10;99.90;;;;;;6130998;23;20443;-88
2022/01/15 07:41:41;;;;;;;54.72;27.13;;;5.10;99.90;;;;;;6130887;23;20060;-90
2022/01/15 07:44:14;;;;;;;54.88;26.75;;;5.10;99.90;;;;;;6107223;23;20013;-89
2022/01/15 07:47:00;;;;;;;;;;;;;;;;;;;;;
2022/01/15 07:49:36;;;;;;;;;;;;;;;;;;;;;
2022/01/15 07:52:20;;;;;;;;;;;;;;;;;;;;;
2022/01/15 07:55:10;;;;;;;56.75;28.10;;;5.20;99.90;;;;;;6158903;23;20499;-88
2022/01/15 07:57:50;;;;;;;61.88;28.65;;;5.20;99.90;;;;;;6157384;23;20014;-88
2022/01/15 08:00:33;;;;;;;60.53;28.77;;;5.20;99.90;;;;;;6132578;23;20451;-88
2022/01/15 08:03:24;;;;;;;55.97;27.73;;;5.20;99.90;;;;;;6132829;23;20005;-89
2022/01/15 08:05:55;;;;;;;58.65;27.20;;;5.20;99.90;;;;;;6132287;23;20048;-88
2022/01/15 08:08:31;;;;;;;93.80;32.47;;;5.20;99.90;;;;;;6133125;23;20009;-89
2022/01/15 08:11:07;;;;;;;;;;;;;;;;;;;;;
2022/01/15 08:13:38;;;;;;;63.75;28.98;;;5.30;99.90;;;;;;6158331;23;20093;-88
2022/01/15 08:16:09;;;;;;;64.13;28.95;;;5.20;99.90;;;;;;6132372;23;20084;-88
2022/01/15 08:18:38;;;;;;;60.63;26.80;;;5.20;99.90;;;;;;6109159;23;20009;-88
2022/01/15 08:21:05;;;;;;;66.57;28.02;;;5.30;99.90;;;;;;6132441;23;19997;-87
2022/01/15 08:23:43;;;;;;;64.68;28.40;;;5.30;99.90;;;;;;6132096;23;20008;-88
2022/01/15 08:26:25;;;;;;;61.70;28.42;;;5.30;99.90;;;;;;6132832;23;20444;-88
2022/01/15 08:28:53;;;;;;;60.17;28.05;;;5.30;99.90;;;;;;6133182;23;20068;-89
2022/01/15 08:31:25;;;;;;;92.55;31.92;;;5.30;99.90;;;;;;6132310;23;19997;-89
2022/01/15 08:33:55;;;;;;;63.03;29.92;;;5.20;99.90;;;;;;6132298;23;20016;-88
2022/01/15 08:36:24;;;;;;;60.60;28.80;;;5.20;99.90;;;;;;6108452;23;20013;-88
2022/01/15 08:38:55;;;;;;;86.82;30.65;;;5.20;99.90;;;;;;6133852;23;20621;-89
2022/01/15 08:41:31;;;;;;;66.07;27.95;;;5.20;99.90;;;;;;6134581;23;20136;-89
2022/01/15 08:43:57;;;;;;;57.17;25.02;;;5.20;99.90;;;;;;6155333;23;20006;-87
2022/01/15 08:46:30;;;;;;;55.67;25.17;;;5.20;99.90;;;;;;6158905;23;20013;-90
2022/01/15 08:48:56;;;;;;;58.25;27.83;;;5.20;99.90;;;;;;6116696;23;20029;-88
2022/01/15 08:51:22;;;;;;;58.60;26.30;;;5.20;99.90;;;;;;6131528;23;20017;-88
2022/01/15 08:53:48;;;;;;;50.50;25.42;;;5.20;99.90;;;;;;6131932;23;20002;-88
2022/01/15 08:56:17;;;;;;;52.88;25.55;;;5.20;99.90;;;;;;6132033;23;20016;-88
2022/01/15 08:58:42;;;;;;;54.90;26.20;;;5.20;99.90;;;;;;6131909;23;20085;-89
2022/01/15 09:01:13;;;;;;;60.45;26.80;;;5.20;99.90;;;;;;6131614;23;19998;-87
2022/01/15 09:03:40;;;;;;;55.42;25.52;;;5.20;99.90;;;;;;6131054;23;19998;-88
2022/01/15 09:06:11;;;;;;;52.08;24.95;;;5.20;99.90;;;;;;6131499;23;20009;-87
2022/01/15 09:08:42;;;;;;;50.00;22.92;;;5.30;99.90;;;;;;6131731;23;20014;-88
2022/01/15 09:11:13;;;;;;;57.03;24.45;;;5.30;99.90;;;;;;6132154;23;20005;-90
2022/01/15 09:13:48;;;;;;;50.60;24.63;;;5.30;99.90;;;;;;6132535;23;20328;-89
2022/01/15 09:16:19;;;;;;;81.15;28.05;;;5.30;99.90;;;;;;6133554;23;20009;-90
2022/01/15 09:18:51;;;;;;;52.35;25.55;;;5.20;99.90;;;;;;6133157;23;20001;-89
2022/01/15 09:21:17;;;;;;;49.33;24.55;;;5.30;99.90;;;;;;6108774;23;20001;-90
2022/01/15 09:24:00;;;;;;;;;;;;;;;;;;;;;
2022/01/15 09:26:49;;;;;;;45.85;23.45;;;5.20;99.90;;;;;;6134780;23;20080;-89
2022/01/15 09:32:29;;;;;;;42.92;21.15;;;5.30;99.90;;;;;;6157592;23;20013;-90
2022/01/15 09:34:57;;;;;;;47.00;22.77;;;5.30;99.90;;;;;;6109429;23;20013;-90
2022/01/15 09:37:28;;;;;;;57.05;23.70;;;5.30;99.90;;;;;;6132710;23;20002;-88
2022/01/15 09:39:53;;;;;;;46.40;22.65;;;5.30;99.90;;;;;;6133496;23;20089;-90
2022/01/15 09:42:22;;;;;;;45.70;23.98;;;5.30;99.90;;;;;;6131499;23;20005;-90
2022/01/15 09:44:48;;;;;;;53.30;26.98;;;5.20;99.90;;;;;;6131937;23;20060;-91
2022/01/15 09:47:22;;;;;;;47.80;23.88;;;5.30;99.90;;;;;;6131782;23;20021;-89
2022/01/15 09:49:52;;;;;;;51.33;26.60;;;5.30;99.90;;;;;;6133332;23;20009;-90
2022/01/15 09:52:20;;;;;;;44.95;23.63;;;5.30;99.90;;;;;;6126279;23;20093;-89
2022/01/15 09:55:15;;;;;;;42.78;22.48;;;5.30;99.90;;;;;;6127259;23;20432;-89
2022/01/15 09:57:50;;;;;;;43.72;23.35;;;5.30;99.90;;;;;;6127190;23;20010;-89
2022/01/15 10:00:21;;;;;;;45.50;23.38;;;5.30;99.90;;;;;;6127924;23;19998;-91
2022/01/15 10:03:17;;;;;;;44.08;24.25;;;5.40;99.90;;;;;;6128875;23;20002;-90
2022/01/15 10:05:55;;;;;;;;;;;;;;;;;;;;;
2022/01/15 10:08:21;;;;;;;49.15;25.75;;;5.40;99.90;;;;;;6153633;23;20001;-91
2022/01/15 10:11:11;;;;;;;57.08;28.00;;;5.40;99.90;;;;;;6153868;23;20006;-91
2022/01/15 10:13:55;;;;;;;48.30;26.05;;;5.40;99.90;;;;;;6153289;23;20065;-91
2022/01/15 10:16:23;;;;;;;54.97;27.50;;;5.40;99.90;;;;;;6133612;23;20013;-89
2022/01/15 10:18:55;;;;;;;51.70;27.90;;;5.40;99.90;;;;;;6127692;23;20029;-90
2022/01/15 10:21:29;;;;;;;51.78;26.65;;;5.30;99.90;;;;;;6126623;23;20048;-90
2022/01/15 10:24:01;;;;;;;54.08;27.88;;;5.30;99.90;;;;;;6103217;23;20037;-91
2022/01/15 10:26:43;;;;;;;51.13;26.95;;;5.40;99.90;;;;;;6126706;23;20013;-90
2022/01/15 10:29:11;;;;;;;57.10;28.38;;;5.30;99.90;;;;;;6126959;23;20068;-90
2022/01/15 10:31:44;;;;;;;55.05;25.85;;;5.30;99.90;;;;;;6126809;23;20008;-90
2022/01/15 10:34:32;;;;;;;44.38;22.58;;;5.30;99.90;;;;;;6126820;23;20399;-90
2022/01/15 10:37:39;;;;;;;41.70;21.77;;;5.30;99.90;;;;;;6126361;23;20097;-90
2022/01/15 10:47:17;;;;;;;;;;;5.30;99.90;;;;;;6127719;23;20082;-89
2022/01/15 10:49:41;;;;;;;36.88;19.02;;;5.30;99.90;;;;;;6123593;23;19905;-88
2022/01/15 10:52:25;;;;;;;41.83;19.58;;;5.30;99.90;;;;;;6126460;23;20014;-90
2022/01/15 10:55:10;;;;;;;37.00;20.48;;;5.30;99.90;;;;;;6127624;23;20428;-90
2022/01/15 10:58:01;;;;;;;38.72;19.60;;;5.30;99.90;;;;;;6126361;23;20006;-89
2022/01/15 11:00:48;;;;;;;37.00;19.05;;;5.30;99.90;;;;;;6125992;23;20032;-89
2022/01/15 11:03:36;;;;;;;36.85;19.80;;;5.40;99.90;;;;;;6126439;23;20012;-88
2022/01/15 11:06:25;;;;;;;37.00;20.15;;;5.40;99.90;;;;;;6126129;23;20125;-89
2022/01/15 11:09:18;;;;;;;;;;;;;;;;;;;;;
2022/01/15 11:12:00;;;;;;;44.05;21.77;;;5.30;99.90;;;;;;6126483;23;20081;-87
2022/01/15 11:14:31;;;;;;;45.28;22.50;;;5.30;99.90;;;;;;6126596;23;20336;-88
2022/01/15 11:17:42;;;;;;;43.55;23.08;;;5.30;99.90;;;;;;6125566;23;20056;-87
2022/01/15 11:20:15;;;;;;;41.08;20.13;;;5.30;99.90;;;;;;6106779;23;20010;-88
2022/01/15 11:22:46;;;;;;;39.88;21.08;;;5.30;99.90;;;;;;6125695;23;19998;-87
2022/01/15 11:39:39;;;;;;;;;;;;;;;;;;;;;
2022/01/15 12:04:52;;;;;;;38.88;21.17;;;4.90;99.90;;;;;;5724238;24;20510;-89
2022/01/15 12:07:24;;;;;;;39.13;20.70;;;5.00;99.90;;;;;;5862718;24;20014;-88
2022/01/15 12:10:25;;;;;;;41.00;20.77;;;5.00;99.90;;;;;;5896369;23;20018;-88
2022/01/15 12:19:42;;;;;;;42.65;22.98;;;5.10;99.90;;;;;;5942638;23;20076;-91
2022/01/15 12:22:43;;;;;;;45.90;24.13;;;5.10;99.90;;;;;;5933829;24;20095;-91
2022/01/15 12:25:18;;;;;;;52.53;26.38;;;5.20;99.90;;;;;;6024725;23;20020;-89
2022/01/15 12:31:20;;;;;;;51.97;26.67;;;5.10;99.90;;;;;;6115049;23;20366;-89
2022/01/15 12:33:57;;;;;;;52.13;27.70;;;5.10;99.90;;;;;;6129766;23;20012;-89
2022/01/15 12:36:26;;;;;;;53.88;26.73;;;5.10;99.90;;;;;;6082545;23;20014;-88
2022/01/15 12:38:54;;;;;;;51.20;26.17;;;5.10;99.90;;;;;;6104064;23;20005;-89
2022/01/15 12:41:35;;;;;;;;;;;;;;;;;;;;;
2022/01/15 12:44:04;;;;;;;52.10;25.35;;;5.10;99.90;;;;;;6106317;23;20069;-91
2022/01/15 12:46:45;;;;;;;;;;;;;;;;;;;;;
2022/01/15 12:49:34;;;;;;;57.78;27.73;;;5.10;99.90;;;;;;6129397;23;20391;-90
2022/01/15 12:52:21;;;;;;;55.53;28.25;;;5.20;99.90;;;;;;6103651;23;20006;-89
2022/01/15 12:55:48;;;;;;;57.15;27.70;;;5.20;99.90;;;;;;6103904;23;20081;-89
2022/01/15 12:58:16;;;;;;;54.35;27.50;;;5.20;99.90;;;;;;6096727;23;20029;-89
2022/01/15 13:01:08;;;;;;;52.83;26.63;;;5.20;99.90;;;;;;6112524;23;20022;-90
2022/01/15 13:03:42;;;;;;;;;;;5.20;99.90;;;;;;6130109;23;20010;-89
2022/01/15 13:06:47;;;;;;;;;;;;;;;;;;;;;
2022/01/15 13:09:53;;;;;;;;;;;;;;;;;;;;;
2022/01/15 13:12:41;;;;;;;49.00;24.13;;;5.10;99.90;;;;;;6128586;23;20090;-89
2022/01/15 13:15:33;;;;;;;45.95;24.67;;;5.10;99.90;;;;;;6082852;23;20089;-89
2022/01/15 13:18:43;;;;;;;46.65;23.70;;;5.10;99.90;;;;;;6103827;23;20006;-92
2022/01/15 13:21:43;;;;;;;;;;;;;;;;;;;;;
2022/01/15 13:25:08;;;;;;;;;;;;;;;;;;;;;
2022/01/15 13:27:56;;;;;;;;;;;;;;;;;;;;;
2022/01/15 13:37:37;;;;;;;46.83;22.77;;;5.00;99.90;;;;;;6099697;23;20387;-91
2022/01/15 13:40:50;;;;;;;41.35;22.35;;;5.00;99.90;;;;;;6079117;23;20010;-91
2022/01/15 13:44:08;;;;;;;38.08;22.67;;;5.00;99.90;;;;;;6102592;23;20002;-91
2022/01/15 13:46:49;;;;;;;39.55;22.25;;;5.00;99.90;;;;;;6102297;23;20496;-88
2022/01/15 13:55:47;;;;;;;47.75;25.90;;;4.90;99.90;;;;;;6114114;23;20029;-89
2022/01/15 13:58:16;;;;;;;49.47;25.38;;;4.80;99.90;;;;;;6135627;23;20028;-89
2022/01/15 14:01:03;;;;;;;48.70;27.65;;;4.80;99.90;;;;;;6131693;23;20100;-90
2022/01/15 14:03:38;;;;;;;46.85;26.25;;;4.80;99.90;;;;;;6088219;23;20005;-89
2022/01/15 14:09:17;;;;;;;39.25;22.73;;;4.80;99.90;;;;;;6136662;23;20088;-89
2022/01/15 14:12:12;;;;;;;;;;;;;;;;;;;;;
2022/01/15 14:15:14;;;;;;;;;;;;;;;;;;;;;
2022/01/15 14:18:11;;;;;;;;;;;;;;;;;;;;;
2022/01/15 14:21:22;;;;;;;42.38;23.85;;;4.70;99.90;;;;;;6158604;23;20498;-90
2022/01/15 14:27:16;;;;;;;39.72;22.13;;;4.70;99.90;;;;;;6081624;23;20074;-93
2022/01/15 14:30:19;;;;;;;39.10;21.25;;;4.70;99.90;;;;;;6158218;23;20005;-90
2022/01/15 14:33:08;;;;;;;;;;;;;;;;;;;;;
2022/01/15 14:42:19;;;;;;;36.33;22.25;;;4.70;99.90;;;;;;6115990;23;20037;-90
2022/01/15 14:44:57;;;;;;;38.05;23.63;;;4.70;99.90;;;;;;6157304;23;20005;-90
2022/01/15 14:47:51;;;;;;;42.47;23.70;;;4.60;99.90;;;;;;6107793;23;20141;-90
2022/01/15 14:50:26;;;;;;;36.92;22.48;;;4.60;99.90;;;;;;6137254;23;20006;-88
2022/01/15 14:53:14;;;;;;;;;;;;;;;;;;;;;
2022/01/15 14:56:00;;;;;;;;;;;;;;;;;;;;;
2022/01/15 14:58:53;;;;;;;33.85;21.42;;;4.70;99.90;;;;;;6112166;23;20061;-87
2022/01/15 15:01:38;;;;;;;;;;;;;;;;;;;;;
2022/01/15 15:04:29;;;;;;;35.20;21.65;;;4.70;99.90;;;;;;6157416;23;20077;-89
2022/01/15 15:07:07;;;;;;;34.77;22.97;;;4.60;99.90;;;;;;6156424;23;20009;-88
2022/01/15 15:09:42;;;;;;;39.55;23.30;;;4.60;99.90;;;;;;6133241;23;20241;-89
2022/01/15 15:12:37;;;;;;;;;;;;;;;;;;;;;
2022/01/15 15:15:35;;;;;;;36.90;23.33;;;4.60;99.90;;;;;;6136046;23;20348;-88
2022/01/15 15:18:03;;;;;;;40.15;23.90;;;4.60;99.90;;;;;;6109005;23;20305;-87
2022/01/15 15:21:14;;;;;;;39.10;24.02;;;4.60;99.90;;;;;;6131711;23;20059;-87
2022/01/15 15:23:47;;;;;;;36.92;23.42;;;4.60;99.90;;;;;;6113355;23;20006;-88
2022/01/15 15:26:49;;;;;;;41.40;25.00;;;4.60;99.90;;;;;;6131711;23;20005;-88
2022/01/15 15:29:41;;;;;;;43.00;26.00;;;4.50;99.90;;;;;;6113192;23;20045;-89
2022/01/15 15:32:20;;;;;;;43.17;25.85;;;4.50;99.90;;;;;;6131714;23;20033;-88
2022/01/15 15:34:58;;;;;;;;;;;;;;;;;;;;;
2022/01/15 15:37:32;;;;;;;45.47;26.58;;;4.50;99.90;;;;;;6133763;23;20507;-88
2022/01/15 15:40:14;;;;;;;46.08;27.02;;;4.50;99.90;;;;;;6131749;23;20024;-88
2022/01/15 15:42:42;;;;;;;44.88;27.58;;;4.50;99.90;;;;;;6131856;23;20001;-88
2022/01/15 15:45:25;;;;;;;46.78;27.23;;;4.50;99.90;;;;;;6131778;23;20017;-90
2022/01/15 15:48:03;;;;;;;;;;;;;;;;;;;;;
2022/01/15 15:50:44;;;;;;;44.33;26.40;;;4.50;99.90;;;;;;6133723;23;20049;-88
2022/01/15 15:53:16;;;;;;;45.72;27.15;;;4.50;99.90;;;;;;6132160;23;20012;-90
2022/01/15 15:56:02;;;;;;;45.88;26.40;;;4.50;99.90;;;;;;6131047;23;20090;-88
2022/01/15 15:58:38;;;;;;;;;;;;;;;;;;;;;
2022/01/15 16:01:14;;;;;;;;;;;;;;;;;;;;;
2022/01/15 16:03:41;;;;;;;45.28;25.95;;;4.50;99.90;;;;;;6144605;23;20458;-89
2022/01/15 16:06:25;;;;;;;48.25;27.38;;;4.50;99.90;;;;;;6106216;23;20065;-89
2022/01/15 16:08:56;;;;;;;44.85;27.38;;;4.40;99.90;;;;;;6082079;23;20010;-88
2022/01/15 16:11:27;;;;;;;43.88;26.05;;;4.40;99.90;;;;;;6078123;23;20006;-88
2022/01/15 16:13:56;;;;;;;48.45;27.75;;;4.40;99.90;;;;;;6079141;23;20006;-89
2022/01/15 16:16:36;;;;;;;44.72;26.27;;;4.50;99.90;;;;;;6104093;23;20013;-87
2022/01/15 16:19:10;;;;;;;47.78;26.48;;;4.40;99.90;;;;;;6105795;23;20013;-87
2022/01/15 16:21:55;;;;;;;47.65;27.08;;;4.50;99.90;;;;;;6103068;23;20002;-88
2022/01/15 16:24:41;;;;;;;52.53;28.27;;;4.40;99.90;;;;;;6104197;23;20145;-89
2022/01/15 16:27:41;;;;;;;47.25;27.08;;;4.50;99.90;;;;;;6082037;23;20013;-91
2022/01/15 16:30:17;;;;;;;;;;;;;;;;;;;;;
2022/01/15 16:32:56;;;;;;;46.35;27.08;;;4.50;99.90;;;;;;6129970;23;20081;-89
2022/01/15 16:35:31;;;;;;;47.90;26.80;;;4.50;99.90;;;;;;6104030;23;20009;-90
2022/01/15 16:38:00;;;;;;;47.95;27.42;;;4.40;99.90;;;;;;6103360;23;20005;-90
2022/01/15 16:40:39;;;;;;;;;;;;;;;;;;;;;
2022/01/15 16:43:22;;;;;;;;;;;;;;;;;;;;;
2022/01/15 16:46:02;;;;;;;48.53;27.63;;;4.40;99.90;;;;;;6106666;23;20089;-90
2022/01/15 16:48:41;;;;;;;48.22;27.38;;;4.40;99.90;;;;;;6082251;23;20017;-89
2022/01/15 16:51:15;;;;;;;47.88;27.67;;;4.40;99.90;;;;;;6103784;23;20451;-89
2022/01/15 16:57:18;;;;;;;51.28;26.90;;;4.40;99.90;;;;;;6128210;23;20026;-90
2022/01/15 17:00:02;;;;;;;51.00;27.38;;;4.40;99.90;;;;;;6117586;23;20032;-90